This is the latest recevied weather packets stored in our database for station/object KD8BMB. If no packets are shown the sender has not sent any weather packets the latest 10 day(s).
| Time | Temp. | Humidity | Pressure | Rain* | Wind** | Luminosity | Snow |
|---|---|---|---|---|---|---|---|
| 1777961735 | 16.67° C | 78% | 998.6 hPa | 0 mm | - | 0 W/m² | - |
| 1777961433 | 16.67° C | 78% | 998.6 hPa | 0 mm | - | 0 W/m² | - |
| 1777961130 | 16.67° C | 77% | 998.8 hPa | 0 mm | - | 0 W/m² | - |
| 1777960826 | 16.67° C | 77% | 998.9 hPa | 0 mm | - | 0 W/m² | - |
| 1777960522 | 17.22° C | 76% | 998.7 hPa | 0 mm | - | 0 W/m² | - |
| 1777960219 | 17.22° C | 77% | 998.7 hPa | 0 mm | - | 0 W/m² | - |
| 1777959916 | 17.22° C | 77% | 998.7 hPa | 0 mm | - | 0 W/m² | - |
| 1777959614 | 17.22° C | 75% | 998.6 hPa | 0 mm | - | 0 W/m² | - |
| 1777959311 | 17.78° C | 75% | 998.4 hPa | 0 mm | - | 0 W/m² | - |
| 1777959008 | 17.78° C | 73% | 998.4 hPa | 0 mm | - | 0 W/m² | - |
| 1777958705 | 17.78° C | 75% | 998.4 hPa | 0 mm | - | 0 W/m² | - |
| 1777958402 | 18.33° C | 73% | 998.4 hPa | 0 mm | - | 0 W/m² | - |
| 1777958098 | 18.89° C | 66% | 998.4 hPa | 0 mm | - | 0 W/m² | - |
| 1777957797 | 19.44° C | 64% | 998.5 hPa | 0 mm | - | 0 W/m² | - |
| 1777957495 | 19.44° C | 63% | 998.3 hPa | 0 mm | - | 0 W/m² | - |
| 1777957192 | 19.44° C | 62% | 998 hPa | 0 mm | - | 0 W/m² | - |
| 1777956888 | 19.44° C | 61% | 998.2 hPa | 0 mm | - | 0 W/m² | - |
| 1777956585 | 20° C | 60% | 998 hPa | 0 mm | - | 0 W/m² | - |
| 1777956283 | 20° C | 61% | 998 hPa | 0 mm | - | 0 W/m² | - |
| 1777955979 | 20° C | 61% | 998 hPa | 0 mm | - | 0 W/m² | - |
| 1777955675 | 20° C | 62% | 997.9 hPa | 0 mm | - | 0 W/m² | - |
| 1777955372 | 20° C | 63% | 998 hPa | 0 mm | - | 0 W/m² | - |
| 1777955068 | 20° C | 64% | 997.9 hPa | 0 mm | - | 0 W/m² | - |
| 1777954766 | 19.44° C | 65% | 997.4 hPa | 0 mm | - | 0 W/m² | - |
| 1777954462 | 19.44° C | 67% | 997.5 hPa | 0 mm | - | 0 W/m² | - |
* Rain latest hour (hover to see other rain measurements)
** Current wind speed in m/s (hover to see current wind gust speed)